sensor_id;sensor_type;location;lat;lon;timestamp;P1;P2;P0
69123;PMS5003;56232;53.384;-2.732;2024-03-02T00:00:49;18;16;
69123;PMS5003;56232;53.384;-2.732;2024-03-02T00:03:14;16;15;
69123;PMS5003;56232;53.384;-2.732;2024-03-02T00:05:39;16;15;
69123;PMS5003;56232;53.384;-2.732;2024-03-02T00:08:05;22;17;
69123;PMS5003;56232;53.384;-2.732;2024-03-02T00:10:31;15;15;
69123;PMS5003;56232;53.384;-2.732;2024-03-02T00:12:56;18;17;
69123;PMS5003;56232;53.384;-2.732;2024-03-02T00:15:36;17;17;
69123;PMS5003;56232;53.384;-2.732;2024-03-02T00:17:47;16;16;
69123;PMS5003;56232;53.384;-2.732;2024-03-02T00:20:13;15;15;
69123;PMS5003;56232;53.384;-2.732;2024-03-02T00:22:39;17;16;
69123;PMS5003;56232;53.384;-2.732;2024-03-02T00:25:05;20;16;
69123;PMS5003;56232;53.384;-2.732;2024-03-02T00:27:30;19;19;
69123;PMS5003;56232;53.384;-2.732;2024-03-02T00:29:56;16;15;
69123;PMS5003;56232;53.384;-2.732;2024-03-02T00:32:21;22;21;
69123;PMS5003;56232;53.384;-2.732;2024-03-02T00:34:46;19;19;
69123;PMS5003;56232;53.384;-2.732;2024-03-02T00:37:12;17;15;
69123;PMS5003;56232;53.384;-2.732;2024-03-02T00:39:38;17;17;
69123;PMS5003;56232;53.384;-2.732;2024-03-02T00:42:03;21;18;
69123;PMS5003;56232;53.384;-2.732;2024-03-02T00:44:29;21;20;
69123;PMS5003;56232;53.384;-2.732;2024-03-02T00:46:54;24;23;
69123;PMS5003;56232;53.384;-2.732;2024-03-02T00:49:20;24;21;
69123;PMS5003;56232;53.384;-2.732;2024-03-02T00:51:46;24;23;
69123;PMS5003;56232;53.384;-2.732;2024-03-02T00:54:10;22;21;
69123;PMS5003;56232;53.384;-2.732;2024-03-02T00:56:36;25;25;
69123;PMS5003;56232;53.384;-2.732;2024-03-02T00:59:02;27;26;
69123;PMS5003;56232;53.384;-2.732;2024-03-02T01:01:27;27;26;
69123;PMS5003;56232;53.384;-2.732;2024-03-02T01:03:53;28;24;
69123;PMS5003;56232;53.384;-2.732;2024-03-02T01:06:19;24;23;
69123;PMS5003;56232;53.384;-2.732;2024-03-02T01:08:44;28;25;
69123;PMS5003;56232;53.384;-2.732;2024-03-02T01:11:09;23;22;
69123;PMS5003;56232;53.384;-2.732;2024-03-02T01:13:35;23;23;
69123;PMS5003;56232;53.384;-2.732;2024-03-02T01:16:01;25;24;
69123;PMS5003;56232;53.384;-2.732;2024-03-02T01:18:27;20;20;
69123;PMS5003;56232;53.384;-2.732;2024-03-02T01:20:52;25;23;
69123;PMS5003;56232;53.384;-2.732;2024-03-02T01:23:18;20;20;
69123;PMS5003;56232;53.384;-2.732;2024-03-02T01:25:44;22;21;
69123;PMS5003;56232;53.384;-2.732;2024-03-02T01:28:09;23;22;
69123;PMS5003;56232;53.384;-2.732;2024-03-02T01:30:34;22;21;
69123;PMS5003;56232;53.384;-2.732;2024-03-02T01:33:00;21;18;
69123;PMS5003;56232;53.384;-2.732;2024-03-02T01:35:25;25;22;
69123;PMS5003;56232;53.384;-2.732;2024-03-02T01:37:51;21;20;
69123;PMS5003;56232;53.384;-2.732;2024-03-02T01:40:17;20;20;
69123;PMS5003;56232;53.384;-2.732;2024-03-02T01:42:42;20;19;
69123;PMS5003;56232;53.384;-2.732;2024-03-02T01:45:08;24;24;
69123;PMS5003;56232;53.384;-2.732;2024-03-02T01:47:33;19;19;
69123;PMS5003;56232;53.384;-2.732;2024-03-02T01:49:59;25;23;
69123;PMS5003;56232;53.384;-2.732;2024-03-02T01:52:25;21;20;
69123;PMS5003;56232;53.384;-2.732;2024-03-02T01:54:50;19;18;
69123;PMS5003;56232;53.384;-2.732;2024-03-02T01:57:16;27;24;
69123;PMS5003;56232;53.384;-2.732;2024-03-02T01:59:41;19;19;
69123;PMS5003;56232;53.384;-2.732;2024-03-02T02:02:07;23;22;
69123;PMS5003;56232;53.384;-2.732;2024-03-02T02:04:33;20;19;
69123;PMS5003;56232;53.384;-2.732;2024-03-02T02:06:58;22;20;
69123;PMS5003;56232;53.384;-2.732;2024-03-02T02:09:25;27;23;
69123;PMS5003;56232;53.384;-2.732;2024-03-02T02:11:49;20;18;
69123;PMS5003;56232;53.384;-2.732;2024-03-02T02:14:14;20;19;
69123;PMS5003;56232;53.384;-2.732;2024-03-02T02:16:39;21;18;
69123;PMS5003;56232;53.384;-2.732;2024-03-02T02:19:05;19;19;
69123;PMS5003;56232;53.384;-2.732;2024-03-02T02:21:31;19;19;
69123;PMS5003;56232;53.384;-2.732;2024-03-02T02:23:56;25;22;
69123;PMS5003;56232;53.384;-2.732;2024-03-02T02:26:21;20;19;
69123;PMS5003;56232;53.384;-2.732;2024-03-02T02:28:47;23;22;
69123;PMS5003;56232;53.384;-2.732;2024-03-02T02:31:12;19;18;
69123;PMS5003;56232;53.384;-2.732;2024-03-02T02:33:38;18;18;
69123;PMS5003;56232;53.384;-2.732;2024-03-02T02:36:04;23;22;
69123;PMS5003;56232;53.384;-2.732;2024-03-02T02:38:29;19;18;
69123;PMS5003;56232;53.384;-2.732;2024-03-02T02:40:55;22;21;
69123;PMS5003;56232;53.384;-2.732;2024-03-02T02:43:21;21;20;
69123;PMS5003;56232;53.384;-2.732;2024-03-02T02:45:46;18;18;
69123;PMS5003;56232;53.384;-2.732;2024-03-02T02:48:12;20;20;
69123;PMS5003;56232;53.384;-2.732;2024-03-02T02:50:38;23;23;
69123;PMS5003;56232;53.384;-2.732;2024-03-02T02:53:03;27;25;
69123;PMS5003;56232;53.384;-2.732;2024-03-02T02:55:29;27;27;
69123;PMS5003;56232;53.384;-2.732;2024-03-02T02:57:54;27;27;
69123;PMS5003;56232;53.384;-2.732;2024-03-02T03:00:20;26;26;
69123;PMS5003;56232;53.384;-2.732;2024-03-02T03:02:45;30;27;
69123;PMS5003;56232;53.384;-2.732;2024-03-02T03:05:11;27;25;
69123;PMS5003;56232;53.384;-2.732;2024-03-02T03:07:36;25;25;
69123;PMS5003;56232;53.384;-2.732;2024-03-02T03:10:02;19;18;
69123;PMS5003;56232;53.384;-2.732;2024-03-02T03:12:27;21;20;
69123;PMS5003;56232;53.384;-2.732;2024-03-02T03:14:53;19;19;
69123;PMS5003;56232;53.384;-2.732;2024-03-02T03:17:18;20;20;
69123;PMS5003;56232;53.384;-2.732;2024-03-02T03:19:43;19;19;
69123;PMS5003;56232;53.384;-2.732;2024-03-02T03:22:09;29;24;
69123;PMS5003;56232;53.384;-2.732;2024-03-02T03:24:35;24;23;
69123;PMS5003;56232;53.384;-2.732;2024-03-02T03:27:00;22;21;
69123;PMS5003;56232;53.384;-2.732;2024-03-02T03:29:26;25;22;
69123;PMS5003;56232;53.384;-2.732;2024-03-02T03:31:51;28;22;
69123;PMS5003;56232;53.384;-2.732;2024-03-02T03:34:17;28;25;
69123;PMS5003;56232;53.384;-2.732;2024-03-02T03:36:43;21;20;
69123;PMS5003;56232;53.384;-2.732;2024-03-02T03:39:08;22;22;
69123;PMS5003;56232;53.384;-2.732;2024-03-02T03:41:34;25;23;
69123;PMS5003;56232;53.384;-2.732;2024-03-02T03:44:00;26;23;
69123;PMS5003;56232;53.384;-2.732;2024-03-02T03:46:26;27;23;
69123;PMS5003;56232;53.384;-2.732;2024-03-02T03:48:51;24;22;
69123;PMS5003;56232;53.384;-2.732;2024-03-02T03:51:16;27;22;
69123;PMS5003;56232;53.384;-2.732;2024-03-02T03:53:42;19;19;
69123;PMS5003;56232;53.384;-2.732;2024-03-02T03:56:08;21;20;
69123;PMS5003;56232;53.384;-2.732;2024-03-02T03:58:33;28;22;
69123;PMS5003;56232;53.384;-2.732;2024-03-02T04:00:58;26;23;
69123;PMS5003;56232;53.384;-2.732;2024-03-02T04:03:25;30;27;
69123;PMS5003;56232;53.384;-2.732;2024-03-02T04:05:50;19;19;
69123;PMS5003;56232;53.384;-2.732;2024-03-02T04:08:15;22;21;
69123;PMS5003;56232;53.384;-2.732;2024-03-02T04:10:40;24;24;
69123;PMS5003;56232;53.384;-2.732;2024-03-02T04:13:06;20;20;
69123;PMS5003;56232;53.384;-2.732;2024-03-02T04:15:31;20;20;
69123;PMS5003;56232;53.384;-2.732;2024-03-02T04:17:57;20;19;
69123;PMS5003;56232;53.384;-2.732;2024-03-02T04:20:23;21;21;
69123;PMS5003;56232;53.384;-2.732;2024-03-02T04:22:48;23;23;
69123;PMS5003;56232;53.384;-2.732;2024-03-02T04:25:13;29;26;
69123;PMS5003;56232;53.384;-2.732;2024-03-02T04:27:39;23;23;
69123;PMS5003;56232;53.384;-2.732;2024-03-02T04:30:05;21;20;
69123;PMS5003;56232;53.384;-2.732;2024-03-02T04:32:30;22;22;
69123;PMS5003;56232;53.384;-2.732;2024-03-02T04:34:55;23;21;
69123;PMS5003;56232;53.384;-2.732;2024-03-02T04:37:21;18;18;
69123;PMS5003;56232;53.384;-2.732;2024-03-02T04:39:47;25;24;
69123;PMS5003;56232;53.384;-2.732;2024-03-02T04:42:12;28;23;
69123;PMS5003;56232;53.384;-2.732;2024-03-02T04:44:38;23;23;
69123;PMS5003;56232;53.384;-2.732;2024-03-02T04:47:03;26;23;
69123;PMS5003;56232;53.384;-2.732;2024-03-02T04:49:28;22;20;
69123;PMS5003;56232;53.384;-2.732;2024-03-02T04:51:53;22;21;
69123;PMS5003;56232;53.384;-2.732;2024-03-02T04:54:19;21;21;
69123;PMS5003;56232;53.384;-2.732;2024-03-02T04:56:45;21;20;
69123;PMS5003;56232;53.384;-2.732;2024-03-02T04:59:11;23;22;
69123;PMS5003;56232;53.384;-2.732;2024-03-02T05:01:36;22;21;
69123;PMS5003;56232;53.384;-2.732;2024-03-02T05:04:02;20;20;
69123;PMS5003;56232;53.384;-2.732;2024-03-02T05:06:27;21;20;
69123;PMS5003;56232;53.384;-2.732;2024-03-02T05:08:52;23;22;
69123;PMS5003;56232;53.384;-2.732;2024-03-02T05:11:18;22;20;
69123;PMS5003;56232;53.384;-2.732;2024-03-02T05:13:44;27;24;
69123;PMS5003;56232;53.384;-2.732;2024-03-02T05:16:09;22;21;
69123;PMS5003;56232;53.384;-2.732;2024-03-02T05:18:34;23;22;
69123;PMS5003;56232;53.384;-2.732;2024-03-02T05:21:00;16;16;
69123;PMS5003;56232;53.384;-2.732;2024-03-02T05:23:26;22;20;
69123;PMS5003;56232;53.384;-2.732;2024-03-02T05:25:51;22;21;
69123;PMS5003;56232;53.384;-2.732;2024-03-02T05:28:16;20;19;
69123;PMS5003;56232;53.384;-2.732;2024-03-02T05:30:42;22;18;
69123;PMS5003;56232;53.384;-2.732;2024-03-02T05:33:07;18;18;
69123;PMS5003;56232;53.384;-2.732;2024-03-02T05:35:32;19;18;
69123;PMS5003;56232;53.384;-2.732;2024-03-02T05:37:58;24;23;
69123;PMS5003;56232;53.384;-2.732;2024-03-02T05:40:23;21;19;
69123;PMS5003;56232;53.384;-2.732;2024-03-02T05:42:49;28;26;
69123;PMS5003;56232;53.384;-2.732;2024-03-02T05:45:14;22;22;
69123;PMS5003;56232;53.384;-2.732;2024-03-02T05:47:40;22;22;
69123;PMS5003;56232;53.384;-2.732;2024-03-02T05:50:06;20;19;
69123;PMS5003;56232;53.384;-2.732;2024-03-02T05:52:31;23;22;
69123;PMS5003;56232;53.384;-2.732;2024-03-02T05:54:56;24;21;
69123;PMS5003;56232;53.384;-2.732;2024-03-02T05:57:22;20;20;
69123;PMS5003;56232;53.384;-2.732;2024-03-02T05:59:47;22;18;
69123;PMS5003;56232;53.384;-2.732;2024-03-02T06:02:13;26;23;
69123;PMS5003;56232;53.384;-2.732;2024-03-02T06:04:38;22;22;
69123;PMS5003;56232;53.384;-2.732;2024-03-02T06:07:03;23;22;
69123;PMS5003;56232;53.384;-2.732;2024-03-02T06:09:29;26;23;
69123;PMS5003;56232;53.384;-2.732;2024-03-02T06:11:54;23;23;
69123;PMS5003;56232;53.384;-2.732;2024-03-02T06:14:19;27;23;
69123;PMS5003;56232;53.384;-2.732;2024-03-02T06:16:45;26;23;
69123;PMS5003;56232;53.384;-2.732;2024-03-02T06:19:10;32;30;
69123;PMS5003;56232;53.384;-2.732;2024-03-02T06:21:36;28;25;
69123;PMS5003;56232;53.384;-2.732;2024-03-02T06:24:01;39;32;
69123;PMS5003;56232;53.384;-2.732;2024-03-02T06:26:27;30;28;
69123;PMS5003;56232;53.384;-2.732;2024-03-02T06:28:52;37;35;
69123;PMS5003;56232;53.384;-2.732;2024-03-02T06:31:18;29;29;
69123;PMS5003;56232;53.384;-2.732;2024-03-02T06:33:43;37;36;
69123;PMS5003;56232;53.384;-2.732;2024-03-02T06:36:09;29;29;
69123;PMS5003;56232;53.384;-2.732;2024-03-02T06:38:35;26;26;
69123;PMS5003;56232;53.384;-2.732;2024-03-02T06:41:00;43;37;
69123;PMS5003;56232;53.384;-2.732;2024-03-02T06:43:26;40;35;
69123;PMS5003;56232;53.384;-2.732;2024-03-02T06:45:51;36;30;
69123;PMS5003;56232;53.384;-2.732;2024-03-02T06:48:17;47;42;
69123;PMS5003;56232;53.384;-2.732;2024-03-02T06:50:42;40;37;
69123;PMS5003;56232;53.384;-2.732;2024-03-02T06:53:07;41;37;
69123;PMS5003;56232;53.384;-2.732;2024-03-02T06:55:33;39;38;
69123;PMS5003;56232;53.384;-2.732;2024-03-02T06:57:58;42;38;
69123;PMS5003;56232;53.384;-2.732;2024-03-02T07:00:24;37;34;
69123;PMS5003;56232;53.384;-2.732;2024-03-02T07:02:50;39;35;
69123;PMS5003;56232;53.384;-2.732;2024-03-02T07:05:16;39;39;
69123;PMS5003;56232;53.384;-2.732;2024-03-02T07:07:41;37;37;
69123;PMS5003;56232;53.384;-2.732;2024-03-02T07:10:07;45;38;
69123;PMS5003;56232;53.384;-2.732;2024-03-02T07:12:32;41;39;
69123;PMS5003;56232;53.384;-2.732;2024-03-02T07:14:57;47;39;
69123;PMS5003;56232;53.384;-2.732;2024-03-02T07:17:23;43;40;
69123;PMS5003;56232;53.384;-2.732;2024-03-02T07:19:48;46;42;
69123;PMS5003;56232;53.384;-2.732;2024-03-02T07:22:14;37;33;
69123;PMS5003;56232;53.384;-2.732;2024-03-02T07:24:40;40;37;
69123;PMS5003;56232;53.384;-2.732;2024-03-02T07:27:05;40;38;
69123;PMS5003;56232;53.384;-2.732;2024-03-02T07:29:30;39;37;
69123;PMS5003;56232;53.384;-2.732;2024-03-02T07:31:56;48;41;
69123;PMS5003;56232;53.384;-2.732;2024-03-02T07:34:21;43;37;
69123;PMS5003;56232;53.384;-2.732;2024-03-02T07:36:47;44;40;
69123;PMS5003;56232;53.384;-2.732;2024-03-02T07:39:13;36;34;
69123;PMS5003;56232;53.384;-2.732;2024-03-02T07:41:38;40;35;
69123;PMS5003;56232;53.384;-2.732;2024-03-02T07:44:04;38;34;
69123;PMS5003;56232;53.384;-2.732;2024-03-02T07:46:29;43;39;
69123;PMS5003;56232;53.384;-2.732;2024-03-02T07:48:54;40;35;
69123;PMS5003;56232;53.384;-2.732;2024-03-02T07:51:20;44;35;
69123;PMS5003;56232;53.384;-2.732;2024-03-02T07:53:45;49;44;
69123;PMS5003;56232;53.384;-2.732;2024-03-02T07:56:11;40;36;
69123;PMS5003;56232;53.384;-2.732;2024-03-02T07:58:36;44;41;
69123;PMS5003;56232;53.384;-2.732;2024-03-02T08:01:02;51;43;
69123;PMS5003;56232;53.384;-2.732;2024-03-02T08:03:27;41;41;
69123;PMS5003;56232;53.384;-2.732;2024-03-02T08:05:53;46;43;
69123;PMS5003;56232;53.384;-2.732;2024-03-02T08:08:19;43;35;
69123;PMS5003;56232;53.384;-2.732;2024-03-02T08:10:44;37;33;
69123;PMS5003;56232;53.384;-2.732;2024-03-02T08:13:10;34;32;
69123;PMS5003;56232;53.384;-2.732;2024-03-02T08:15:35;38;35;
69123;PMS5003;56232;53.384;-2.732;2024-03-02T08:18:01;46;37;
69123;PMS5003;56232;53.384;-2.732;2024-03-02T08:20:26;37;35;
69123;PMS5003;56232;53.384;-2.732;2024-03-02T08:22:51;45;39;
69123;PMS5003;56232;53.384;-2.732;2024-03-02T08:25:17;37;36;
69123;PMS5003;56232;53.384;-2.732;2024-03-02T08:27:42;39;34;
69123;PMS5003;56232;53.384;-2.732;2024-03-02T08:30:08;42;37;
69123;PMS5003;56232;53.384;-2.732;2024-03-02T08:32:33;41;39;
69123;PMS5003;56232;53.384;-2.732;2024-03-02T08:34:59;40;38;
69123;PMS5003;56232;53.384;-2.732;2024-03-02T08:37:24;44;38;
69123;PMS5003;56232;53.384;-2.732;2024-03-02T08:39:49;43;38;
69123;PMS5003;56232;53.384;-2.732;2024-03-02T08:42:14;40;38;
69123;PMS5003;56232;53.384;-2.732;2024-03-02T08:44:40;43;38;
69123;PMS5003;56232;53.384;-2.732;2024-03-02T08:47:05;36;35;
69123;PMS5003;56232;53.384;-2.732;2024-03-02T08:49:31;37;35;
69123;PMS5003;56232;53.384;-2.732;2024-03-02T08:51:57;40;35;
69123;PMS5003;56232;53.384;-2.732;2024-03-02T08:54:22;42;35;
69123;PMS5003;56232;53.384;-2.732;2024-03-02T08:56:47;35;34;
69123;PMS5003;56232;53.384;-2.732;2024-03-02T08:59:13;36;33;
69123;PMS5003;56232;53.384;-2.732;2024-03-02T09:01:39;35;34;
69123;PMS5003;56232;53.384;-2.732;2024-03-02T09:04:04;41;34;
69123;PMS5003;56232;53.384;-2.732;2024-03-02T09:06:29;35;34;
69123;PMS5003;56232;53.384;-2.732;2024-03-02T09:09:00;40;34;
69123;PMS5003;56232;53.384;-2.732;2024-03-02T09:11:20;37;35;
69123;PMS5003;56232;53.384;-2.732;2024-03-02T09:13:46;35;34;
69123;PMS5003;56232;53.384;-2.732;2024-03-02T09:16:11;35;32;
69123;PMS5003;56232;53.384;-2.732;2024-03-02T09:18:37;35;35;
69123;PMS5003;56232;53.384;-2.732;2024-03-02T09:21:02;31;31;
69123;PMS5003;56232;53.384;-2.732;2024-03-02T09:23:28;35;28;
69123;PMS5003;56232;53.384;-2.732;2024-03-02T09:25:54;38;35;
69123;PMS5003;56232;53.384;-2.732;2024-03-02T09:28:19;36;32;
69123;PMS5003;56232;53.384;-2.732;2024-03-02T09:30:44;31;31;
69123;PMS5003;56232;53.384;-2.732;2024-03-02T09:33:10;29;28;
69123;PMS5003;56232;53.384;-2.732;2024-03-02T09:35:35;38;34;
69123;PMS5003;56232;53.384;-2.732;2024-03-02T09:38:01;34;33;
69123;PMS5003;56232;53.384;-2.732;2024-03-02T09:40:26;32;31;
69123;PMS5003;56232;53.384;-2.732;2024-03-02T09:42:51;39;35;
69123;PMS5003;56232;53.384;-2.732;2024-03-02T09:45:16;33;30;
69123;PMS5003;56232;53.384;-2.732;2024-03-02T09:47:42;29;26;
69123;PMS5003;56232;53.384;-2.732;2024-03-02T09:50:07;38;31;
69123;PMS5003;56232;53.384;-2.732;2024-03-02T09:52:32;29;28;
69123;PMS5003;56232;53.384;-2.732;2024-03-02T09:54:58;35;32;
69123;PMS5003;56232;53.384;-2.732;2024-03-02T09:57:23;30;28;
69123;PMS5003;56232;53.384;-2.732;2024-03-02T09:59:48;37;34;
69123;PMS5003;56232;53.384;-2.732;2024-03-02T10:02:14;36;27;
69123;PMS5003;56232;53.384;-2.732;2024-03-02T10:04:39;36;32;
69123;PMS5003;56232;53.384;-2.732;2024-03-02T10:07:11;29;28;
69123;PMS5003;56232;53.384;-2.732;2024-03-02T10:09:30;37;36;
69123;PMS5003;56232;53.384;-2.732;2024-03-02T10:14:21;32;28;
69123;PMS5003;56232;53.384;-2.732;2024-03-02T10:16:47;29;27;
69123;PMS5003;56232;53.384;-2.732;2024-03-02T10:19:16;37;31;
69123;PMS5003;56232;53.384;-2.732;2024-03-02T10:21:39;30;28;
69123;PMS5003;56232;53.384;-2.732;2024-03-02T10:24:06;30;27;
69123;PMS5003;56232;53.384;-2.732;2024-03-02T10:26:29;32;31;
69123;PMS5003;56232;53.384;-2.732;2024-03-02T10:28:55;33;29;
69123;PMS5003;56232;53.384;-2.732;2024-03-02T10:31:21;29;27;
69123;PMS5003;56232;53.384;-2.732;2024-03-02T10:33:46;34;30;
69123;PMS5003;56232;53.384;-2.732;2024-03-02T10:36:12;30;26;
69123;PMS5003;56232;53.384;-2.732;2024-03-02T10:38:42;28;28;
69123;PMS5003;56232;53.384;-2.732;2024-03-02T10:41:03;27;27;
69123;PMS5003;56232;53.384;-2.732;2024-03-02T10:43:28;25;25;
69123;PMS5003;56232;53.384;-2.732;2024-03-02T10:45:53;37;29;
69123;PMS5003;56232;53.384;-2.732;2024-03-02T10:48:19;24;24;
69123;PMS5003;56232;53.384;-2.732;2024-03-02T10:50:44;24;24;
69123;PMS5003;56232;53.384;-2.732;2024-03-02T10:53:09;26;24;
69123;PMS5003;56232;53.384;-2.732;2024-03-02T10:55:35;23;22;
69123;PMS5003;56232;53.384;-2.732;2024-03-02T10:58:00;25;24;
69123;PMS5003;56232;53.384;-2.732;2024-03-02T11:00:26;25;22;
69123;PMS5003;56232;53.384;-2.732;2024-03-02T11:02:52;27;23;
69123;PMS5003;56232;53.384;-2.732;2024-03-02T11:05:19;24;22;
69123;PMS5003;56232;53.384;-2.732;2024-03-02T11:07:42;24;24;
69123;PMS5003;56232;53.384;-2.732;2024-03-02T11:10:08;30;27;
69123;PMS5003;56232;53.384;-2.732;2024-03-02T11:12:35;28;28;
69123;PMS5003;56232;53.384;-2.732;2024-03-02T11:14:59;29;28;
69123;PMS5003;56232;53.384;-2.732;2024-03-02T11:17:29;25;24;
69123;PMS5003;56232;53.384;-2.732;2024-03-02T11:19:49;22;22;
69123;PMS5003;56232;53.384;-2.732;2024-03-02T11:22:14;20;19;
69123;PMS5003;56232;53.384;-2.732;2024-03-02T11:24:40;20;20;
69123;PMS5003;56232;53.384;-2.732;2024-03-02T11:27:05;25;23;
69123;PMS5003;56232;53.384;-2.732;2024-03-02T11:31:57;21;18;
69123;PMS5003;56232;53.384;-2.732;2024-03-02T11:36:46;18;17;
69123;PMS5003;56232;53.384;-2.732;2024-03-02T11:39:11;18;18;
69123;PMS5003;56232;53.384;-2.732;2024-03-02T11:41:37;19;19;
69123;PMS5003;56232;53.384;-2.732;2024-03-02T11:44:03;19;18;
69123;PMS5003;56232;53.384;-2.732;2024-03-02T11:46:27;18;18;
69123;PMS5003;56232;53.384;-2.732;2024-03-02T11:48:53;24;20;
69123;PMS5003;56232;53.384;-2.732;2024-03-02T11:51:18;19;18;
69123;PMS5003;56232;53.384;-2.732;2024-03-02T11:53:43;21;19;
69123;PMS5003;56232;53.384;-2.732;2024-03-02T11:56:09;21;21;
69123;PMS5003;56232;53.384;-2.732;2024-03-02T11:58:35;15;15;
69123;PMS5003;56232;53.384;-2.732;2024-03-02T12:01:01;17;17;
69123;PMS5003;56232;53.384;-2.732;2024-03-02T12:03:27;18;18;
69123;PMS5003;56232;53.384;-2.732;2024-03-02T12:05:52;18;18;
69123;PMS5003;56232;53.384;-2.732;2024-03-02T12:08:18;16;16;
69123;PMS5003;56232;53.384;-2.732;2024-03-02T12:13:09;19;18;
69123;PMS5003;56232;53.384;-2.732;2024-03-02T12:15:34;17;17;
69123;PMS5003;56232;53.384;-2.732;2024-03-02T12:17:59;26;21;
69123;PMS5003;56232;53.384;-2.732;2024-03-02T12:20:25;17;16;
69123;PMS5003;56232;53.384;-2.732;2024-03-02T12:22:50;18;18;
69123;PMS5003;56232;53.384;-2.732;2024-03-02T12:25:14;19;19;
69123;PMS5003;56232;53.384;-2.732;2024-03-02T12:27:39;17;16;
69123;PMS5003;56232;53.384;-2.732;2024-03-02T12:30:05;28;23;
69123;PMS5003;56232;53.384;-2.732;2024-03-02T12:32:31;21;21;
69123;PMS5003;56232;53.384;-2.732;2024-03-02T12:34:56;25;22;
69123;PMS5003;56232;53.384;-2.732;2024-03-02T12:37:21;25;21;
69123;PMS5003;56232;53.384;-2.732;2024-03-02T12:39:47;22;21;
69123;PMS5003;56232;53.384;-2.732;2024-03-02T12:42:12;23;22;
69123;PMS5003;56232;53.384;-2.732;2024-03-02T12:44:37;25;21;
69123;PMS5003;56232;53.384;-2.732;2024-03-02T12:47:03;19;18;
69123;PMS5003;56232;53.384;-2.732;2024-03-02T12:49:29;19;19;
69123;PMS5003;56232;53.384;-2.732;2024-03-02T12:51:54;20;19;
69123;PMS5003;56232;53.384;-2.732;2024-03-02T12:54:21;19;18;
69123;PMS5003;56232;53.384;-2.732;2024-03-02T12:56:45;17;17;
69123;PMS5003;56232;53.384;-2.732;2024-03-02T13:01:36;20;19;
69123;PMS5003;56232;53.384;-2.732;2024-03-02T13:04:02;19;18;
69123;PMS5003;56232;53.384;-2.732;2024-03-02T13:06:28;21;18;
69123;PMS5003;56232;53.384;-2.732;2024-03-02T13:08:53;23;21;
69123;PMS5003;56232;53.384;-2.732;2024-03-02T13:11:18;19;19;
69123;PMS5003;56232;53.384;-2.732;2024-03-02T13:13:44;21;17;
69123;PMS5003;56232;53.384;-2.732;2024-03-02T13:16:09;15;15;
69123;PMS5003;56232;53.384;-2.732;2024-03-02T13:18:35;16;15;
69123;PMS5003;56232;53.384;-2.732;2024-03-02T13:21:00;17;17;
69123;PMS5003;56232;53.384;-2.732;2024-03-02T13:23:26;26;21;
69123;PMS5003;56232;53.384;-2.732;2024-03-02T13:25:51;19;18;
69123;PMS5003;56232;53.384;-2.732;2024-03-02T13:28:16;18;17;
69123;PMS5003;56232;53.384;-2.732;2024-03-02T13:30:42;15;15;
69123;PMS5003;56232;53.384;-2.732;2024-03-02T13:33:08;18;18;
69123;PMS5003;56232;53.384;-2.732;2024-03-02T13:35:33;14;14;
69123;PMS5003;56232;53.384;-2.732;2024-03-02T13:37:58;12;12;
69123;PMS5003;56232;53.384;-2.732;2024-03-02T13:40:24;15;14;
69123;PMS5003;56232;53.384;-2.732;2024-03-02T13:42:50;12;12;
69123;PMS5003;56232;53.384;-2.732;2024-03-02T13:45:15;13;13;
69123;PMS5003;56232;53.384;-2.732;2024-03-02T13:47:41;21;17;
69123;PMS5003;56232;53.384;-2.732;2024-03-02T13:50:06;18;16;
69123;PMS5003;56232;53.384;-2.732;2024-03-02T13:52:32;10;10;
69123;PMS5003;56232;53.384;-2.732;2024-03-02T13:54:57;10;10;
69123;PMS5003;56232;53.384;-2.732;2024-03-02T13:57:23;10;10;
69123;PMS5003;56232;53.384;-2.732;2024-03-02T13:59:48;12;11;
69123;PMS5003;56232;53.384;-2.732;2024-03-02T14:02:14;12;12;
69123;PMS5003;56232;53.384;-2.732;2024-03-02T14:04:39;8;8;
69123;PMS5003;56232;53.384;-2.732;2024-03-02T14:07:05;9;9;
69123;PMS5003;56232;53.384;-2.732;2024-03-02T14:09:30;10;10;
69123;PMS5003;56232;53.384;-2.732;2024-03-02T14:11:56;8;8;
69123;PMS5003;56232;53.384;-2.732;2024-03-02T14:14:22;10;10;
69123;PMS5003;56232;53.384;-2.732;2024-03-02T14:16:48;9;9;
69123;PMS5003;56232;53.384;-2.732;2024-03-02T14:19:13;10;10;
69123;PMS5003;56232;53.384;-2.732;2024-03-02T14:21:39;8;8;
69123;PMS5003;56232;53.384;-2.732;2024-03-02T14:24:05;7;7;
69123;PMS5003;56232;53.384;-2.732;2024-03-02T14:26:30;8;8;
69123;PMS5003;56232;53.384;-2.732;2024-03-02T14:28:56;8;8;
69123;PMS5003;56232;53.384;-2.732;2024-03-02T14:31:22;8;8;
69123;PMS5003;56232;53.384;-2.732;2024-03-02T14:33:47;7;7;
69123;PMS5003;56232;53.384;-2.732;2024-03-02T14:36:13;8;7;
69123;PMS5003;56232;53.384;-2.732;2024-03-02T14:38:39;9;9;
69123;PMS5003;56232;53.384;-2.732;2024-03-02T14:41:04;6;6;
69123;PMS5003;56232;53.384;-2.732;2024-03-02T14:43:30;5;5;
69123;PMS5003;56232;53.384;-2.732;2024-03-02T14:45:56;7;6;
69123;PMS5003;56232;53.384;-2.732;2024-03-02T14:48:27;5;5;
69123;PMS5003;56232;53.384;-2.732;2024-03-02T14:50:47;5;5;
69123;PMS5003;56232;53.384;-2.732;2024-03-02T14:53:13;7;6;
69123;PMS5003;56232;53.384;-2.732;2024-03-02T14:55:38;6;5;
69123;PMS5003;56232;53.384;-2.732;2024-03-02T14:58:04;6;6;
69123;PMS5003;56232;53.384;-2.732;2024-03-02T15:00:35;7;7;
69123;PMS5003;56232;53.384;-2.732;2024-03-02T15:02:56;9;9;
69123;PMS5003;56232;53.384;-2.732;2024-03-02T15:05:21;9;9;
69123;PMS5003;56232;53.384;-2.732;2024-03-02T15:07:47;7;7;
69123;PMS5003;56232;53.384;-2.732;2024-03-02T15:10:13;7;6;
69123;PMS5003;56232;53.384;-2.732;2024-03-02T15:12:38;8;7;
69123;PMS5003;56232;53.384;-2.732;2024-03-02T15:15:04;7;7;
69123;PMS5003;56232;53.384;-2.732;2024-03-02T15:17:29;6;5;
69123;PMS5003;56232;53.384;-2.732;2024-03-02T15:19:55;7;7;
69123;PMS5003;56232;53.384;-2.732;2024-03-02T15:22:21;7;7;
69123;PMS5003;56232;53.384;-2.732;2024-03-02T15:24:46;6;6;
69123;PMS5003;56232;53.384;-2.732;2024-03-02T15:27:12;15;13;
69123;PMS5003;56232;53.384;-2.732;2024-03-02T15:29:38;8;8;
69123;PMS5003;56232;53.384;-2.732;2024-03-02T15:32:03;9;8;
69123;PMS5003;56232;53.384;-2.732;2024-03-02T15:34:29;6;6;
69123;PMS5003;56232;53.384;-2.732;2024-03-02T15:36:55;7;7;
69123;PMS5003;56232;53.384;-2.732;2024-03-02T15:39:20;7;7;
69123;PMS5003;56232;53.384;-2.732;2024-03-02T15:41:46;7;7;
69123;PMS5003;56232;53.384;-2.732;2024-03-02T15:44:11;7;7;
69123;PMS5003;56232;53.384;-2.732;2024-03-02T15:46:37;4;4;
69123;PMS5003;56232;53.384;-2.732;2024-03-02T15:49:03;2;2;
69123;PMS5003;56232;53.384;-2.732;2024-03-02T15:51:28;3;3;
69123;PMS5003;56232;53.384;-2.732;2024-03-02T15:53:54;3;3;
69123;PMS5003;56232;53.384;-2.732;2024-03-02T15:56:20;3;3;
69123;PMS5003;56232;53.384;-2.732;2024-03-02T15:58:45;4;3;
69123;PMS5003;56232;53.384;-2.732;2024-03-02T16:01:11;5;5;
69123;PMS5003;56232;53.384;-2.732;2024-03-02T16:03:37;4;4;
69123;PMS5003;56232;53.384;-2.732;2024-03-02T16:06:03;4;4;